sensor_id;sensor_type;location;lat;lon;timestamp;P1;durP1;ratioP1;P2;durP2;ratioP2
32393;SDS011;18853;45.426;9.206;2023-03-01T00:01:25;48.78;;;34.17;;
32393;SDS011;18853;45.426;9.206;2023-03-01T00:03:52;48.15;;;34.13;;
32393;SDS011;18853;45.426;9.206;2023-03-01T00:06:19;48.33;;;33.10;;
32393;SDS011;18853;45.426;9.206;2023-03-01T00:08:46;50.03;;;34.85;;
32393;SDS011;18853;45.426;9.206;2023-03-01T00:13:43;50.15;;;35.67;;
32393;SDS011;18853;45.426;9.206;2023-03-01T00:16:11;45.97;;;33.72;;
32393;SDS011;18853;45.426;9.206;2023-03-01T00:18:39;50.72;;;36.40;;
32393;SDS011;18853;45.426;9.206;2023-03-01T00:21:05;47.50;;;34.80;;
32393;SDS011;18853;45.426;9.206;2023-03-01T00:23:31;49.38;;;34.45;;
32393;SDS011;18853;45.426;9.206;2023-03-01T00:25:59;48.83;;;35.92;;
32393;SDS011;18853;45.426;9.206;2023-03-01T00:28:24;49.38;;;34.83;;
32393;SDS011;18853;45.426;9.206;2023-03-01T00:30:50;54.33;;;35.90;;
32393;SDS011;18853;45.426;9.206;2023-03-01T00:33:15;50.45;;;36.45;;
32393;SDS011;18853;45.426;9.206;2023-03-01T00:35:41;50.92;;;36.20;;
32393;SDS011;18853;45.426;9.206;2023-03-01T00:38:07;50.33;;;35.38;;
32393;SDS011;18853;45.426;9.206;2023-03-01T00:40:33;50.00;;;35.83;;
32393;SDS011;18853;45.426;9.206;2023-03-01T00:43:00;50.35;;;35.90;;
32393;SDS011;18853;45.426;9.206;2023-03-01T00:45:26;46.08;;;34.05;;
32393;SDS011;18853;45.426;9.206;2023-03-01T00:47:52;51.00;;;35.20;;
32393;SDS011;18853;45.426;9.206;2023-03-01T00:50:19;45.72;;;35.20;;
32393;SDS011;18853;45.426;9.206;2023-03-01T00:52:45;51.13;;;36.55;;
32393;SDS011;18853;45.426;9.206;2023-03-01T00:55:10;53.15;;;36.97;;
32393;SDS011;18853;45.426;9.206;2023-03-01T00:57:36;49.25;;;35.03;;
32393;SDS011;18853;45.426;9.206;2023-03-01T01:00:03;48.78;;;35.25;;
32393;SDS011;18853;45.426;9.206;2023-03-01T01:02:32;49.97;;;35.47;;
32393;SDS011;18853;45.426;9.206;2023-03-01T01:04:58;49.80;;;36.22;;
32393;SDS011;18853;45.426;9.206;2023-03-01T01:07:24;48.47;;;35.15;;
32393;SDS011;18853;45.426;9.206;2023-03-01T01:09:49;52.17;;;35.75;;
32393;SDS011;18853;45.426;9.206;2023-03-01T01:12:15;49.95;;;34.78;;
32393;SDS011;18853;45.426;9.206;2023-03-01T01:14:41;46.95;;;34.83;;
32393;SDS011;18853;45.426;9.206;2023-03-01T01:17:06;49.42;;;35.55;;
32393;SDS011;18853;45.426;9.206;2023-03-01T01:19:32;51.38;;;35.80;;
32393;SDS011;18853;45.426;9.206;2023-03-01T01:21:58;51.67;;;36.20;;
32393;SDS011;18853;45.426;9.206;2023-03-01T01:24:23;48.28;;;35.35;;
32393;SDS011;18853;45.426;9.206;2023-03-01T01:26:49;49.30;;;35.92;;
32393;SDS011;18853;45.426;9.206;2023-03-01T01:29:15;55.53;;;36.90;;
32393;SDS011;18853;45.426;9.206;2023-03-01T01:31:41;51.78;;;35.90;;
32393;SDS011;18853;45.426;9.206;2023-03-01T01:34:09;51.15;;;36.20;;
32393;SDS011;18853;45.426;9.206;2023-03-01T01:36:39;51.67;;;36.00;;
32393;SDS011;18853;45.426;9.206;2023-03-01T01:39:04;50.15;;;35.45;;
32393;SDS011;18853;45.426;9.206;2023-03-01T01:41:30;54.42;;;36.17;;
32393;SDS011;18853;45.426;9.206;2023-03-01T01:47:04;52.03;;;35.63;;
32393;SDS011;18853;45.426;9.206;2023-03-01T01:54:49;48.05;;;34.10;;
32393;SDS011;18853;45.426;9.206;2023-03-01T01:57:37;53.70;;;34.78;;
32393;SDS011;18853;45.426;9.206;2023-03-01T02:00:09;50.03;;;34.80;;
32393;SDS011;18853;45.426;9.206;2023-03-01T02:02:41;50.22;;;34.78;;
32393;SDS011;18853;45.426;9.206;2023-03-01T02:05:13;53.72;;;35.53;;
32393;SDS011;18853;45.426;9.206;2023-03-01T02:07:45;51.80;;;35.15;;
32393;SDS011;18853;45.426;9.206;2023-03-01T02:10:13;50.97;;;34.17;;
32393;SDS011;18853;45.426;9.206;2023-03-01T02:12:39;47.33;;;34.63;;
32393;SDS011;18853;45.426;9.206;2023-03-01T02:15:05;50.60;;;34.97;;
32393;SDS011;18853;45.426;9.206;2023-03-01T02:17:31;49.78;;;35.13;;
32393;SDS011;18853;45.426;9.206;2023-03-01T02:22:46;47.95;;;33.85;;
32393;SDS011;18853;45.426;9.206;2023-03-01T02:33:27;49.50;;;34.25;;
32393;SDS011;18853;45.426;9.206;2023-03-01T02:35:57;47.35;;;32.80;;
32393;SDS011;18853;45.426;9.206;2023-03-01T02:38:26;47.25;;;33.05;;
32393;SDS011;18853;45.426;9.206;2023-03-01T02:40:52;47.20;;;33.97;;
32393;SDS011;18853;45.426;9.206;2023-03-01T02:43:22;48.30;;;33.83;;
32393;SDS011;18853;45.426;9.206;2023-03-01T02:45:52;46.63;;;33.28;;
32393;SDS011;18853;45.426;9.206;2023-03-01T02:48:21;49.17;;;33.67;;
32393;SDS011;18853;45.426;9.206;2023-03-01T02:51:04;48.83;;;34.42;;
32393;SDS011;18853;45.426;9.206;2023-03-01T02:56:43;48.78;;;33.63;;
32393;SDS011;18853;45.426;9.206;2023-03-01T02:59:09;47.45;;;33.25;;
32393;SDS011;18853;45.426;9.206;2023-03-01T03:01:36;45.22;;;31.60;;
32393;SDS011;18853;45.426;9.206;2023-03-01T03:04:05;47.80;;;33.90;;
32393;SDS011;18853;45.426;9.206;2023-03-01T03:06:33;43.78;;;32.10;;
32393;SDS011;18853;45.426;9.206;2023-03-01T03:08:59;46.75;;;33.70;;
32393;SDS011;18853;45.426;9.206;2023-03-01T03:11:25;45.35;;;31.95;;
32393;SDS011;18853;45.426;9.206;2023-03-01T03:13:51;48.60;;;32.95;;
32393;SDS011;18853;45.426;9.206;2023-03-01T03:16:17;45.70;;;33.95;;
32393;SDS011;18853;45.426;9.206;2023-03-01T03:18:43;47.55;;;33.00;;
32393;SDS011;18853;45.426;9.206;2023-03-01T03:21:09;46.83;;;32.00;;
32393;SDS011;18853;45.426;9.206;2023-03-01T03:23:37;47.47;;;33.08;;
32393;SDS011;18853;45.426;9.206;2023-03-01T03:26:03;42.85;;;32.55;;
32393;SDS011;18853;45.426;9.206;2023-03-01T03:28:30;47.60;;;33.38;;
32393;SDS011;18853;45.426;9.206;2023-03-01T03:30:56;46.63;;;32.42;;
32393;SDS011;18853;45.426;9.206;2023-03-01T03:33:23;45.33;;;32.05;;
32393;SDS011;18853;45.426;9.206;2023-03-01T03:35:49;48.50;;;32.45;;
32393;SDS011;18853;45.426;9.206;2023-03-01T03:38:16;47.65;;;32.67;;
32393;SDS011;18853;45.426;9.206;2023-03-01T03:43:15;48.05;;;33.70;;
32393;SDS011;18853;45.426;9.206;2023-03-01T03:45:43;48.72;;;32.30;;
32393;SDS011;18853;45.426;9.206;2023-03-01T03:48:10;44.88;;;31.63;;
32393;SDS011;18853;45.426;9.206;2023-03-01T03:50:39;47.78;;;33.72;;
32393;SDS011;18853;45.426;9.206;2023-03-01T03:53:09;45.67;;;33.08;;
32393;SDS011;18853;45.426;9.206;2023-03-01T03:55:36;45.83;;;32.00;;
32393;SDS011;18853;45.426;9.206;2023-03-01T03:58:04;47.63;;;32.33;;
32393;SDS011;18853;45.426;9.206;2023-03-01T04:00:32;42.35;;;31.95;;
32393;SDS011;18853;45.426;9.206;2023-03-01T04:03:02;44.85;;;32.75;;
32393;SDS011;18853;45.426;9.206;2023-03-01T04:05:28;47.42;;;32.88;;
32393;SDS011;18853;45.426;9.206;2023-03-01T04:07:54;51.72;;;32.40;;
32393;SDS011;18853;45.426;9.206;2023-03-01T04:10:56;43.55;;;30.25;;
32393;SDS011;18853;45.426;9.206;2023-03-01T04:13:22;43.70;;;31.38;;
32393;SDS011;18853;45.426;9.206;2023-03-01T04:15:50;48.50;;;33.00;;
32393;SDS011;18853;45.426;9.206;2023-03-01T04:18:17;45.47;;;32.00;;
32393;SDS011;18853;45.426;9.206;2023-03-01T04:20:44;47.75;;;31.55;;
32393;SDS011;18853;45.426;9.206;2023-03-01T04:23:14;45.75;;;31.70;;
32393;SDS011;18853;45.426;9.206;2023-03-01T04:25:46;43.67;;;31.00;;
32393;SDS011;18853;45.426;9.206;2023-03-01T04:28:24;48.33;;;33.03;;
32393;SDS011;18853;45.426;9.206;2023-03-01T04:30:51;45.88;;;32.42;;
32393;SDS011;18853;45.426;9.206;2023-03-01T04:33:18;46.92;;;33.92;;
32393;SDS011;18853;45.426;9.206;2023-03-01T04:35:44;43.80;;;31.35;;
32393;SDS011;18853;45.426;9.206;2023-03-01T04:38:10;46.97;;;32.75;;
32393;SDS011;18853;45.426;9.206;2023-03-01T04:40:36;45.67;;;32.33;;
32393;SDS011;18853;45.426;9.206;2023-03-01T04:43:02;45.30;;;31.92;;
32393;SDS011;18853;45.426;9.206;2023-03-01T04:45:28;43.88;;;31.33;;
32393;SDS011;18853;45.426;9.206;2023-03-01T04:47:54;46.72;;;32.53;;
32393;SDS011;18853;45.426;9.206;2023-03-01T04:50:20;46.83;;;32.38;;
32393;SDS011;18853;45.426;9.206;2023-03-01T04:52:47;45.30;;;31.45;;
32393;SDS011;18853;45.426;9.206;2023-03-01T04:55:12;46.10;;;31.33;;
32393;SDS011;18853;45.426;9.206;2023-03-01T04:57:39;48.38;;;33.35;;
32393;SDS011;18853;45.426;9.206;2023-03-01T05:00:05;44.38;;;31.60;;
32393;SDS011;18853;45.426;9.206;2023-03-01T05:05:18;46.65;;;30.58;;
32393;SDS011;18853;45.426;9.206;2023-03-01T05:07:45;45.80;;;31.27;;
32393;SDS011;18853;45.426;9.206;2023-03-01T05:10:11;43.67;;;32.15;;
32393;SDS011;18853;45.426;9.206;2023-03-01T05:12:36;42.42;;;29.65;;
32393;SDS011;18853;45.426;9.206;2023-03-01T05:15:02;41.58;;;29.45;;
32393;SDS011;18853;45.426;9.206;2023-03-01T05:17:32;40.28;;;29.15;;
32393;SDS011;18853;45.426;9.206;2023-03-01T05:19:58;42.92;;;30.40;;
32393;SDS011;18853;45.426;9.206;2023-03-01T05:22:24;39.03;;;28.17;;
32393;SDS011;18853;45.426;9.206;2023-03-01T05:24:50;38.38;;;27.80;;
32393;SDS011;18853;45.426;9.206;2023-03-01T05:27:16;40.40;;;27.65;;
32393;SDS011;18853;45.426;9.206;2023-03-01T05:29:41;41.63;;;27.77;;
32393;SDS011;18853;45.426;9.206;2023-03-01T05:32:07;38.10;;;26.73;;
32393;SDS011;18853;45.426;9.206;2023-03-01T05:34:34;37.13;;;26.75;;
32393;SDS011;18853;45.426;9.206;2023-03-01T05:37:01;36.63;;;26.15;;
32393;SDS011;18853;45.426;9.206;2023-03-01T05:39:28;36.42;;;24.98;;
32393;SDS011;18853;45.426;9.206;2023-03-01T05:41:55;40.50;;;26.08;;
32393;SDS011;18853;45.426;9.206;2023-03-01T05:44:23;37.35;;;24.42;;
32393;SDS011;18853;45.426;9.206;2023-03-01T05:46:50;37.97;;;25.48;;
32393;SDS011;18853;45.426;9.206;2023-03-01T05:49:16;36.97;;;24.88;;
32393;SDS011;18853;45.426;9.206;2023-03-01T05:51:43;36.85;;;24.98;;
32393;SDS011;18853;45.426;9.206;2023-03-01T05:54:13;33.58;;;23.13;;
32393;SDS011;18853;45.426;9.206;2023-03-01T05:56:38;33.70;;;24.20;;
32393;SDS011;18853;45.426;9.206;2023-03-01T05:59:04;35.42;;;23.13;;
32393;SDS011;18853;45.426;9.206;2023-03-01T06:01:30;32.05;;;21.45;;
32393;SDS011;18853;45.426;9.206;2023-03-01T06:03:57;36.42;;;22.75;;
32393;SDS011;18853;45.426;9.206;2023-03-01T06:06:22;31.40;;;22.77;;
32393;SDS011;18853;45.426;9.206;2023-03-01T06:08:49;33.72;;;23.52;;
32393;SDS011;18853;45.426;9.206;2023-03-01T06:11:14;33.30;;;23.42;;
32393;SDS011;18853;45.426;9.206;2023-03-01T06:13:41;34.17;;;22.50;;
32393;SDS011;18853;45.426;9.206;2023-03-01T06:16:10;33.75;;;22.20;;
32393;SDS011;18853;45.426;9.206;2023-03-01T06:18:37;34.95;;;22.88;;
32393;SDS011;18853;45.426;9.206;2023-03-01T06:21:03;29.75;;;21.08;;
32393;SDS011;18853;45.426;9.206;2023-03-01T06:23:30;33.33;;;20.52;;
32393;SDS011;18853;45.426;9.206;2023-03-01T06:25:55;36.05;;;21.45;;
32393;SDS011;18853;45.426;9.206;2023-03-01T06:28:21;31.48;;;21.23;;
32393;SDS011;18853;45.426;9.206;2023-03-01T06:30:47;32.13;;;21.77;;
32393;SDS011;18853;45.426;9.206;2023-03-01T06:33:14;33.38;;;21.20;;
32393;SDS011;18853;45.426;9.206;2023-03-01T06:35:40;31.38;;;21.52;;
32393;SDS011;18853;45.426;9.206;2023-03-01T06:38:05;33.53;;;21.27;;
32393;SDS011;18853;45.426;9.206;2023-03-01T06:40:31;30.15;;;20.55;;
32393;SDS011;18853;45.426;9.206;2023-03-01T06:42:57;34.00;;;20.88;;
32393;SDS011;18853;45.426;9.206;2023-03-01T06:45:24;33.60;;;21.13;;
32393;SDS011;18853;45.426;9.206;2023-03-01T06:47:50;35.25;;;22.42;;
32393;SDS011;18853;45.426;9.206;2023-03-01T06:50:16;34.60;;;22.15;;
32393;SDS011;18853;45.426;9.206;2023-03-01T06:52:43;31.65;;;20.13;;
32393;SDS011;18853;45.426;9.206;2023-03-01T06:55:09;29.95;;;20.23;;
32393;SDS011;18853;45.426;9.206;2023-03-01T06:57:35;32.17;;;20.70;;
32393;SDS011;18853;45.426;9.206;2023-03-01T07:00:01;28.45;;;20.00;;
32393;SDS011;18853;45.426;9.206;2023-03-01T07:02:28;28.25;;;20.52;;
32393;SDS011;18853;45.426;9.206;2023-03-01T07:04:54;27.52;;;19.63;;
32393;SDS011;18853;45.426;9.206;2023-03-01T07:07:19;28.67;;;19.40;;
32393;SDS011;18853;45.426;9.206;2023-03-01T07:09:45;27.67;;;18.90;;
32393;SDS011;18853;45.426;9.206;2023-03-01T07:12:11;29.65;;;20.08;;
32393;SDS011;18853;45.426;9.206;2023-03-01T07:14:37;27.98;;;19.25;;
32393;SDS011;18853;45.426;9.206;2023-03-01T07:17:02;31.80;;;20.52;;
32393;SDS011;18853;45.426;9.206;2023-03-01T07:19:28;27.50;;;19.08;;
32393;SDS011;18853;45.426;9.206;2023-03-01T07:21:54;27.75;;;19.40;;
32393;SDS011;18853;45.426;9.206;2023-03-01T07:24:20;30.70;;;20.17;;
32393;SDS011;18853;45.426;9.206;2023-03-01T07:26:49;29.38;;;19.77;;
32393;SDS011;18853;45.426;9.206;2023-03-01T07:29:16;27.90;;;20.25;;
32393;SDS011;18853;45.426;9.206;2023-03-01T07:31:42;29.92;;;21.02;;
32393;SDS011;18853;45.426;9.206;2023-03-01T07:34:08;32.70;;;21.23;;
32393;SDS011;18853;45.426;9.206;2023-03-01T07:36:34;28.85;;;20.88;;
32393;SDS011;18853;45.426;9.206;2023-03-01T07:38:59;30.83;;;21.63;;
32393;SDS011;18853;45.426;9.206;2023-03-01T07:41:27;35.03;;;22.48;;
32393;SDS011;18853;45.426;9.206;2023-03-01T07:43:53;31.92;;;21.27;;
32393;SDS011;18853;45.426;9.206;2023-03-01T07:46:18;35.10;;;20.27;;
32393;SDS011;18853;45.426;9.206;2023-03-01T07:48:44;28.67;;;20.00;;
32393;SDS011;18853;45.426;9.206;2023-03-01T07:51:10;31.20;;;20.40;;
32393;SDS011;18853;45.426;9.206;2023-03-01T07:53:36;29.88;;;20.65;;
32393;SDS011;18853;45.426;9.206;2023-03-01T07:56:05;30.95;;;20.45;;
32393;SDS011;18853;45.426;9.206;2023-03-01T07:58:36;30.88;;;20.25;;
32393;SDS011;18853;45.426;9.206;2023-03-01T08:01:03;29.00;;;19.02;;
32393;SDS011;18853;45.426;9.206;2023-03-01T08:03:30;27.13;;;17.08;;
32393;SDS011;18853;45.426;9.206;2023-03-01T08:05:58;24.52;;;17.13;;
32393;SDS011;18853;45.426;9.206;2023-03-01T08:08:25;30.85;;;19.25;;
32393;SDS011;18853;45.426;9.206;2023-03-01T08:10:51;24.55;;;16.88;;
32393;SDS011;18853;45.426;9.206;2023-03-01T08:13:16;25.25;;;17.73;;
32393;SDS011;18853;45.426;9.206;2023-03-01T08:15:47;24.73;;;16.50;;
32393;SDS011;18853;45.426;9.206;2023-03-01T08:18:13;23.20;;;16.95;;
32393;SDS011;18853;45.426;9.206;2023-03-01T08:20:39;24.77;;;16.65;;
32393;SDS011;18853;45.426;9.206;2023-03-01T08:23:05;24.88;;;16.75;;
32393;SDS011;18853;45.426;9.206;2023-03-01T08:25:31;24.77;;;17.50;;
32393;SDS011;18853;45.426;9.206;2023-03-01T08:27:56;26.33;;;17.55;;
32393;SDS011;18853;45.426;9.206;2023-03-01T08:30:22;26.67;;;16.92;;
32393;SDS011;18853;45.426;9.206;2023-03-01T08:32:49;25.35;;;17.13;;
32393;SDS011;18853;45.426;9.206;2023-03-01T08:35:14;27.20;;;16.48;;
32393;SDS011;18853;45.426;9.206;2023-03-01T08:37:40;25.77;;;17.27;;
32393;SDS011;18853;45.426;9.206;2023-03-01T08:40:06;28.70;;;16.92;;
32393;SDS011;18853;45.426;9.206;2023-03-01T08:42:34;22.88;;;16.45;;
32393;SDS011;18853;45.426;9.206;2023-03-01T08:45:00;24.38;;;16.55;;
32393;SDS011;18853;45.426;9.206;2023-03-01T08:47:26;22.75;;;16.25;;
32393;SDS011;18853;45.426;9.206;2023-03-01T08:49:52;23.35;;;15.77;;
32393;SDS011;18853;45.426;9.206;2023-03-01T08:52:18;25.83;;;17.30;;
32393;SDS011;18853;45.426;9.206;2023-03-01T08:54:44;24.00;;;16.45;;
32393;SDS011;18853;45.426;9.206;2023-03-01T08:57:11;25.02;;;17.20;;
32393;SDS011;18853;45.426;9.206;2023-03-01T08:59:37;27.23;;;16.88;;
32393;SDS011;18853;45.426;9.206;2023-03-01T09:02:04;27.23;;;17.13;;
32393;SDS011;18853;45.426;9.206;2023-03-01T09:04:30;29.52;;;17.75;;
32393;SDS011;18853;45.426;9.206;2023-03-01T09:06:58;25.42;;;16.92;;
32393;SDS011;18853;45.426;9.206;2023-03-01T09:09:24;22.98;;;16.23;;
32393;SDS011;18853;45.426;9.206;2023-03-01T09:11:49;26.52;;;15.63;;
32393;SDS011;18853;45.426;9.206;2023-03-01T09:14:15;24.98;;;15.40;;
32393;SDS011;18853;45.426;9.206;2023-03-01T09:16:41;22.50;;;15.52;;
32393;SDS011;18853;45.426;9.206;2023-03-01T09:19:07;23.73;;;16.08;;
32393;SDS011;18853;45.426;9.206;2023-03-01T09:21:33;26.98;;;16.85;;
32393;SDS011;18853;45.426;9.206;2023-03-01T09:23:58;26.80;;;16.50;;
32393;SDS011;18853;45.426;9.206;2023-03-01T09:26:24;22.77;;;16.55;;
32393;SDS011;18853;45.426;9.206;2023-03-01T09:28:51;26.40;;;17.13;;
32393;SDS011;18853;45.426;9.206;2023-03-01T09:31:19;23.25;;;16.58;;
32393;SDS011;18853;45.426;9.206;2023-03-01T09:33:46;26.15;;;16.80;;
32393;SDS011;18853;45.426;9.206;2023-03-01T09:36:14;26.42;;;17.25;;
32393;SDS011;18853;45.426;9.206;2023-03-01T09:38:42;27.25;;;18.13;;
32393;SDS011;18853;45.426;9.206;2023-03-01T09:41:19;25.65;;;18.35;;
32393;SDS011;18853;45.426;9.206;2023-03-01T09:46:46;27.85;;;18.67;;
32393;SDS011;18853;45.426;9.206;2023-03-01T09:49:13;30.90;;;19.95;;
32393;SDS011;18853;45.426;9.206;2023-03-01T09:52:00;32.38;;;20.05;;
32393;SDS011;18853;45.426;9.206;2023-03-01T09:54:32;33.05;;;23.00;;
32393;SDS011;18853;45.426;9.206;2023-03-01T09:57:15;35.38;;;25.05;;
32393;SDS011;18853;45.426;9.206;2023-03-01T10:05:14;38.90;;;25.70;;
32393;SDS011;18853;45.426;9.206;2023-03-01T10:10:39;37.95;;;25.15;;
32393;SDS011;18853;45.426;9.206;2023-03-01T10:13:15;37.95;;;24.35;;
32393;SDS011;18853;45.426;9.206;2023-03-01T10:15:50;35.88;;;23.95;;
32393;SDS011;18853;45.426;9.206;2023-03-01T10:18:26;39.20;;;23.40;;
32393;SDS011;18853;45.426;9.206;2023-03-01T10:20:56;35.53;;;23.52;;
32393;SDS011;18853;45.426;9.206;2023-03-01T10:23:27;32.28;;;22.25;;
32393;SDS011;18853;45.426;9.206;2023-03-01T10:28:31;36.17;;;23.77;;
32393;SDS011;18853;45.426;9.206;2023-03-01T10:31:11;35.80;;;23.60;;
32393;SDS011;18853;45.426;9.206;2023-03-01T10:33:44;35.78;;;22.70;;
32393;SDS011;18853;45.426;9.206;2023-03-01T10:36:10;38.75;;;23.58;;
32393;SDS011;18853;45.426;9.206;2023-03-01T10:38:49;33.30;;;22.10;;
32393;SDS011;18853;45.426;9.206;2023-03-01T10:41:23;30.67;;;21.20;;
32393;SDS011;18853;45.426;9.206;2023-03-01T10:43:51;28.63;;;20.67;;
32393;SDS011;18853;45.426;9.206;2023-03-01T10:46:42;35.63;;;21.60;;
32393;SDS011;18853;45.426;9.206;2023-03-01T10:51:43;30.77;;;20.83;;
32393;SDS011;18853;45.426;9.206;2023-03-01T10:56:49;28.58;;;19.98;;
32393;SDS011;18853;45.426;9.206;2023-03-01T11:04:34;34.30;;;20.58;;
32393;SDS011;18853;45.426;9.206;2023-03-01T11:07:00;32.85;;;20.92;;
32393;SDS011;18853;45.426;9.206;2023-03-01T11:09:30;30.52;;;20.48;;
32393;SDS011;18853;45.426;9.206;2023-03-01T11:12:02;31.20;;;21.23;;
32393;SDS011;18853;45.426;9.206;2023-03-01T11:14:35;32.10;;;20.80;;
32393;SDS011;18853;45.426;9.206;2023-03-01T11:17:12;29.88;;;21.52;;
32393;SDS011;18853;45.426;9.206;2023-03-01T11:19:59;32.83;;;21.75;;
32393;SDS011;18853;45.426;9.206;2023-03-01T11:22:31;31.60;;;21.67;;
32393;SDS011;18853;45.426;9.206;2023-03-01T11:24:59;33.90;;;22.02;;
32393;SDS011;18853;45.426;9.206;2023-03-01T11:27:31;31.40;;;20.13;;
32393;SDS011;18853;45.426;9.206;2023-03-01T11:30:00;30.98;;;20.52;;
32393;SDS011;18853;45.426;9.206;2023-03-01T11:32:41;31.02;;;21.55;;
32393;SDS011;18853;45.426;9.206;2023-03-01T11:35:15;33.00;;;21.55;;
32393;SDS011;18853;45.426;9.206;2023-03-01T11:40:25;32.10;;;21.40;;
32393;SDS011;18853;45.426;9.206;2023-03-01T11:45:50;34.60;;;22.25;;
32393;SDS011;18853;45.426;9.206;2023-03-01T11:51:21;32.83;;;22.20;;
32393;SDS011;18853;45.426;9.206;2023-03-01T11:57:04;34.50;;;22.83;;
32393;SDS011;18853;45.426;9.206;2023-03-01T12:08:18;35.38;;;22.85;;
32393;SDS011;18853;45.426;9.206;2023-03-01T12:13:43;32.50;;;22.45;;
32393;SDS011;18853;45.426;9.206;2023-03-01T12:22:42;33.85;;;23.50;;
32393;SDS011;18853;45.426;9.206;2023-03-01T12:49:37;33.42;;;23.38;;
32393;SDS011;18853;45.426;9.206;2023-03-01T12:54:35;32.97;;;22.17;;
32393;SDS011;18853;45.426;9.206;2023-03-01T13:00:09;39.55;;;23.10;;
32393;SDS011;18853;45.426;9.206;2023-03-01T13:05:36;33.30;;;23.42;;
32393;SDS011;18853;45.426;9.206;2023-03-01T13:08:10;37.28;;;23.48;;
32393;SDS011;18853;45.426;9.206;2023-03-01T13:11:00;34.90;;;24.20;;
32393;SDS011;18853;45.426;9.206;2023-03-01T13:13:28;38.50;;;24.70;;
32393;SDS011;18853;45.426;9.206;2023-03-01T13:15:55;39.08;;;24.08;;
32393;SDS011;18853;45.426;9.206;2023-03-01T13:26:28;40.50;;;25.20;;
32393;SDS011;18853;45.426;9.206;2023-03-01T13:36:11;37.83;;;24.85;;
32393;SDS011;18853;45.426;9.206;2023-03-01T13:39:04;37.05;;;24.48;;
32393;SDS011;18853;45.426;9.206;2023-03-01T13:41:54;35.58;;;23.50;;
32393;SDS011;18853;45.426;9.206;2023-03-01T13:46:50;41.47;;;24.98;;
32393;SDS011;18853;45.426;9.206;2023-03-01T13:49:28;36.85;;;24.77;;
32393;SDS011;18853;45.426;9.206;2023-03-01T13:52:00;36.97;;;24.60;;
32393;SDS011;18853;45.426;9.206;2023-03-01T13:54:31;35.30;;;23.88;;
32393;SDS011;18853;45.426;9.206;2023-03-01T13:57:00;35.30;;;24.13;;
32393;SDS011;18853;45.426;9.206;2023-03-01T13:59:27;35.08;;;24.15;;
32393;SDS011;18853;45.426;9.206;2023-03-01T14:01:58;33.05;;;23.25;;
32393;SDS011;18853;45.426;9.206;2023-03-01T14:04:26;36.65;;;25.00;;
32393;SDS011;18853;45.426;9.206;2023-03-01T14:07:10;33.45;;;24.25;;
32393;SDS011;18853;45.426;9.206;2023-03-01T14:09:47;35.17;;;24.60;;
32393;SDS011;18853;45.426;9.206;2023-03-01T14:12:30;38.78;;;24.25;;
32393;SDS011;18853;45.426;9.206;2023-03-01T14:15:01;32.65;;;23.58;;
32393;SDS011;18853;45.426;9.206;2023-03-01T14:20:16;33.67;;;23.42;;
32393;SDS011;18853;45.426;9.206;2023-03-01T14:22:48;36.97;;;23.83;;
32393;SDS011;18853;45.426;9.206;2023-03-01T14:25:21;36.35;;;25.65;;
32393;SDS011;18853;45.426;9.206;2023-03-01T14:27:52;41.15;;;24.67;;
32393;SDS011;18853;45.426;9.206;2023-03-01T14:30:22;38.22;;;25.77;;
32393;SDS011;18853;45.426;9.206;2023-03-01T14:35:30;39.40;;;25.05;;
32393;SDS011;18853;45.426;9.206;2023-03-01T14:37:57;35.42;;;24.55;;
32393;SDS011;18853;45.426;9.206;2023-03-01T14:40:24;36.63;;;23.95;;
32393;SDS011;18853;45.426;9.206;2023-03-01T14:42:50;35.70;;;24.50;;
32393;SDS011;18853;45.426;9.206;2023-03-01T14:45:17;34.75;;;24.48;;
32393;SDS011;18853;45.426;9.206;2023-03-01T14:47:43;39.78;;;25.55;;
32393;SDS011;18853;45.426;9.206;2023-03-01T14:52:53;33.33;;;23.52;;
32393;SDS011;18853;45.426;9.206;2023-03-01T14:57:59;32.58;;;23.55;;
32393;SDS011;18853;45.426;9.206;2023-03-01T15:00:29;44.13;;;24.13;;
32393;SDS011;18853;45.426;9.206;2023-03-01T15:02:56;59.13;;;36.80;;
32393;SDS011;18853;45.426;9.206;2023-03-01T15:05:29;44.78;;;29.98;;
32393;SDS011;18853;45.426;9.206;2023-03-01T15:07:58;47.25;;;31.42;;
32393;SDS011;18853;45.426;9.206;2023-03-01T15:10:27;48.55;;;31.50;;
32393;SDS011;18853;45.426;9.206;2023-03-01T15:12:55;40.20;;;26.50;;
32393;SDS011;18853;45.426;9.206;2023-03-01T15:15:23;38.70;;;24.67;;
32393;SDS011;18853;45.426;9.206;2023-03-01T15:18:45;35.72;;;23.98;;
32393;SDS011;18853;45.426;9.206;2023-03-01T15:20:52;34.90;;;24.58;;
32393;SDS011;18853;45.426;9.206;2023-03-01T15:25:48;35.65;;;24.70;;
32393;SDS011;18853;45.426;9.206;2023-03-01T15:28:21;35.65;;;24.60;;
32393;SDS011;18853;45.426;9.206;2023-03-01T15:30:56;37.17;;;24.13;;
32393;SDS011;18853;45.426;9.206;2023-03-01T15:35:54;36.45;;;23.35;;
32393;SDS011;18853;45.426;9.206;2023-03-01T15:41:04;35.72;;;24.05;;
32393;SDS011;18853;45.426;9.206;2023-03-01T15:43:46;33.50;;;22.73;;
32393;SDS011;18853;45.426;9.206;2023-03-01T15:46:31;37.13;;;24.25;;
32393;SDS011;18853;45.426;9.206;2023-03-01T15:49:03;38.00;;;24.45;;
32393;SDS011;18853;45.426;9.206;2023-03-01T15:51:58;36.03;;;24.02;;
32393;SDS011;18853;45.426;9.206;2023-03-01T15:54:24;32.58;;;23.52;;
32393;SDS011;18853;45.426;9.206;2023-03-01T15:56:51;36.00;;;24.10;;
32393;SDS011;18853;45.426;9.206;2023-03-01T15:59:17;35.13;;;23.65;;
32393;SDS011;18853;45.426;9.206;2023-03-01T16:01:44;35.08;;;24.38;;
32393;SDS011;18853;45.426;9.206;2023-03-01T16:04:10;35.03;;;23.52;;
32393;SDS011;18853;45.426;9.206;2023-03-01T16:06:46;35.22;;;23.63;;
32393;SDS011;18853;45.426;9.206;2023-03-01T16:09:20;31.10;;;23.45;;
32393;SDS011;18853;45.426;9.206;2023-03-01T16:11:49;33.65;;;23.92;;
32393;SDS011;18853;45.426;9.206;2023-03-01T16:14:16;36.22;;;25.13;;
32393;SDS011;18853;45.426;9.206;2023-03-01T16:16:42;35.88;;;24.20;;
32393;SDS011;18853;45.426;9.206;2023-03-01T16:19:08;35.15;;;24.10;;
32393;SDS011;18853;45.426;9.206;2023-03-01T16:21:35;36.88;;;25.50;;
32393;SDS011;18853;45.426;9.206;2023-03-01T16:24:01;36.75;;;24.70;;
32393;SDS011;18853;45.426;9.206;2023-03-01T16:26:26;37.95;;;25.80;;
32393;SDS011;18853;45.426;9.206;2023-03-01T16:28:54;37.20;;;25.63;;
32393;SDS011;18853;45.426;9.206;2023-03-01T16:31:21;37.17;;;24.42;;
32393;SDS011;18853;45.426;9.206;2023-03-01T16:33:49;35.92;;;25.55;;
32393;SDS011;18853;45.426;9.206;2023-03-01T16:36:18;36.53;;;25.40;;
32393;SDS011;18853;45.426;9.206;2023-03-01T16:38:48;36.30;;;25.50;;
32393;SDS011;18853;45.426;9.206;2023-03-01T16:41:15;38.63;;;26.60;;
32393;SDS011;18853;45.426;9.206;2023-03-01T16:43:42;41.13;;;26.08;;
32393;SDS011;18853;45.426;9.206;2023-03-01T16:46:15;38.85;;;26.10;;
32393;SDS011;18853;45.426;9.206;2023-03-01T16:48:43;37.50;;;26.33;;
32393;SDS011;18853;45.426;9.206;2023-03-01T16:51:10;40.97;;;26.50;;
32393;SDS011;18853;45.426;9.206;2023-03-01T16:53:37;36.53;;;25.67;;
32393;SDS011;18853;45.426;9.206;2023-03-01T16:56:04;33.20;;;22.80;;
32393;SDS011;18853;45.426;9.206;2023-03-01T16:58:31;34.05;;;22.90;;
32393;SDS011;18853;45.426;9.206;2023-03-01T17:01:02;34.28;;;23.63;;
32393;SDS011;18853;45.426;9.206;2023-03-01T17:03:29;33.00;;;23.42;;